createdAt,value
2023-05-05T12:08:11.652Z,40.04
2023-05-05T12:10:39.136Z,39.69
2023-05-05T12:13:17.924Z,39.55
2023-05-05T12:15:45.249Z,38.52
2023-05-05T12:18:18.741Z,39.26
2023-05-05T12:20:46.214Z,39.50
2023-05-05T12:23:14.910Z,39.40
2023-05-05T12:25:42.271Z,38.35
2023-05-05T12:28:09.951Z,39.18
2023-05-05T12:30:37.611Z,39.12
2023-05-05T12:33:06.571Z,39.03
2023-05-05T12:35:34.669Z,38.50
2023-05-05T12:38:02.129Z,39.31
2023-05-05T12:40:47.916Z,38.77
2023-05-05T12:43:25.249Z,40.36
2023-05-05T12:46:06.729Z,40.15
2023-05-05T12:48:34.752Z,40.79
2023-05-05T12:51:16.176Z,39.12
2023-05-05T12:53:43.750Z,40.03
2023-05-05T12:56:35.283Z,39.23
2023-05-05T12:59:03.953Z,40.46
2023-05-05T13:01:31.833Z,39.34
2023-05-05T13:04:06.571Z,39.58
2023-05-05T13:06:34.056Z,38.95
2023-05-05T13:09:01.418Z,38.40
2023-05-05T13:11:28.708Z,38.78
2023-05-05T13:13:57.913Z,38.55
2023-05-05T13:16:25.386Z,38.29
2023-05-05T13:18:52.776Z,37.56
2023-05-05T13:21:20.086Z,37.88
2023-05-05T13:23:47.419Z,37.58
2023-05-05T13:26:14.834Z,37.05
2023-05-05T13:28:42.140Z,37.43
2023-05-05T13:31:10.871Z,38.28
2023-05-05T13:33:38.209Z,40.42
2023-05-05T13:36:05.792Z,38.63
2023-05-05T13:38:33.175Z,37.76
2023-05-05T13:41:00.614Z,37.26
2023-05-05T13:43:28.016Z,36.96
2023-05-05T13:46:02.881Z,36.25
2023-05-05T13:48:38.083Z,37.06
2023-05-05T13:51:06.148Z,36.97
2023-05-05T13:53:34.036Z,36.66
2023-05-05T13:56:02.852Z,37.33
2023-05-05T13:58:31.002Z,37.86
2023-05-05T14:00:58.787Z,38.62
2023-05-05T14:03:26.916Z,37.92
2023-05-05T14:05:56.840Z,37.28
2023-05-05T14:08:24.190Z,35.73
2023-05-05T14:10:52.241Z,36.39
2023-05-05T14:13:22.742Z,36.13
2023-05-05T14:15:50.121Z,36.37
2023-05-05T14:18:17.415Z,36.41
2023-05-05T14:20:44.719Z,36.86
2023-05-05T14:23:13.417Z,35.54
2023-05-05T14:25:40.721Z,36.11
2023-05-05T14:28:08.040Z,35.61
2023-05-05T14:33:20.508Z,35.97
2023-05-05T14:35:47.839Z,36.48
2023-05-05T14:38:16.568Z,37.46
2023-05-05T14:40:43.871Z,36.43
2023-05-05T14:43:11.152Z,36.95
2023-05-05T14:45:38.514Z,36.93
2023-05-05T14:48:06.039Z,36.56
2023-05-05T14:50:33.325Z,36.87
2023-05-05T14:53:00.793Z,37.22
2023-05-05T14:55:29.468Z,35.86
2023-05-05T14:57:56.837Z,35.37
2023-05-05T15:00:24.420Z,35.83
2023-05-05T15:02:51.766Z,34.57
2023-05-05T15:05:19.134Z,35.13
2023-05-05T15:07:46.448Z,35.03
2023-05-05T15:10:13.708Z,35.91
2023-05-05T15:12:42.410Z,36.07
2023-05-05T15:15:10.545Z,35.39
2023-05-05T15:17:38.155Z,34.67
2023-05-05T15:20:06.996Z,34.78
2023-05-05T15:22:34.705Z,36.54
2023-05-05T15:25:02.112Z,37.69
2023-05-05T15:27:29.460Z,36.86
2023-05-05T15:29:58.123Z,36.35
2023-05-05T15:32:27.924Z,36.79
2023-05-05T15:34:55.245Z,36.25
2023-05-05T15:37:22.609Z,35.78
2023-05-05T15:39:52.234Z,35.82
2023-05-05T15:42:19.542Z,35.73
2023-05-05T15:44:46.884Z,35.06
2023-05-05T15:47:15.593Z,35.19
2023-05-05T15:49:42.935Z,34.48
2023-05-05T15:52:10.249Z,34.27
2023-05-05T15:54:37.589Z,33.75
2023-05-05T15:57:04.971Z,34.93
2023-05-05T15:59:35.705Z,35.49
2023-05-05T16:02:03.144Z,35.79
2023-05-05T16:04:32.000Z,35.68
2023-05-05T16:06:59.320Z,34.78
2023-05-05T16:09:26.579Z,35.67
2023-05-05T16:11:53.974Z,36.25
2023-05-05T16:14:21.404Z,35.42
2023-05-05T16:16:48.839Z,35.48
2023-05-05T16:19:16.339Z,36.20
2023-05-05T16:21:45.157Z,36.17
2023-05-05T16:24:12.512Z,35.94
2023-05-05T16:26:39.814Z,36.92
2023-05-05T16:29:07.201Z,36.76
2023-05-05T16:31:34.600Z,35.79
2023-05-05T16:34:02.058Z,36.47
2023-05-05T16:36:29.525Z,36.90
2023-05-05T16:38:58.232Z,36.11
2023-05-05T16:41:25.621Z,35.51
2023-05-05T16:43:53.080Z,34.82
2023-05-05T16:46:20.419Z,35.20
2023-05-05T16:48:48.395Z,35.17
2023-05-05T16:51:15.761Z,35.43
2023-05-05T16:53:43.086Z,35.52
2023-05-05T16:56:12.774Z,35.57
2023-05-05T16:58:40.339Z,36.27
2023-05-05T17:01:07.634Z,36.17
2023-05-05T17:03:34.969Z,36.67
2023-05-05T17:06:02.333Z,36.98
2023-05-05T17:08:29.760Z,37.54
2023-05-05T17:10:57.257Z,36.65
2023-05-05T17:13:25.911Z,37.49
2023-05-05T17:15:53.334Z,38.73
2023-05-05T17:18:20.660Z,38.00
2023-05-05T17:20:49.371Z,38.39
2023-05-05T17:23:16.754Z,38.65
2023-05-05T17:25:44.157Z,38.48
2023-05-05T17:28:11.554Z,37.43
2023-05-05T17:30:40.273Z,38.29
2023-05-05T17:33:07.700Z,38.49
2023-05-05T17:35:35.083Z,39.22
2023-05-05T17:38:02.439Z,39.79
2023-05-05T17:40:29.804Z,39.47
2023-05-05T17:42:57.107Z,39.22
2023-05-05T17:45:24.551Z,38.05
2023-05-05T17:47:56.191Z,38.67
2023-05-05T17:50:23.562Z,39.00
2023-05-05T17:52:50.872Z,39.29
2023-05-05T17:55:18.357Z,39.43
2023-05-05T17:57:45.615Z,39.55
2023-05-05T18:00:13.964Z,39.32
2023-05-05T18:02:41.695Z,39.59
2023-05-05T18:05:10.658Z,40.06
2023-05-05T18:07:38.301Z,40.26
2023-05-05T18:10:07.512Z,39.79
2023-05-05T18:12:34.873Z,40.82
2023-05-05T18:15:02.680Z,39.95
2023-05-05T18:17:30.031Z,39.96
2023-05-05T18:19:57.369Z,40.51
2023-05-05T18:22:26.104Z,40.11
2023-05-05T18:24:53.496Z,40.09
2023-05-05T18:27:20.861Z,40.12
2023-05-05T18:29:48.136Z,40.28
2023-05-05T18:32:15.430Z,40.32
2023-05-05T18:34:42.794Z,40.37
2023-05-05T18:37:10.188Z,40.26
2023-05-05T18:39:38.877Z,40.82
2023-05-05T18:42:06.135Z,40.67
2023-05-05T18:44:33.616Z,40.60
2023-05-05T18:47:01.151Z,40.77
2023-05-05T18:49:30.392Z,41.47
2023-05-05T18:51:58.724Z,41.11
2023-05-05T18:54:26.030Z,41.50
2023-05-05T18:56:54.784Z,41.67
2023-05-05T18:59:22.313Z,42.11
2023-05-05T19:01:49.643Z,42.17
2023-05-05T19:04:30.199Z,42.40
2023-05-05T19:06:58.557Z,42.70
2023-05-05T19:09:26.064Z,42.88
2023-05-05T19:11:54.728Z,43.52
2023-05-05T19:14:22.617Z,44.20
2023-05-05T19:16:50.285Z,44.74
2023-05-05T19:19:17.714Z,44.74
2023-05-05T19:21:45.015Z,44.76
2023-05-05T19:24:12.334Z,45.79
2023-05-05T19:26:39.721Z,45.74
2023-05-05T19:29:08.412Z,45.69
2023-05-05T19:31:35.759Z,46.39
2023-05-05T19:34:04.700Z,46.32
2023-05-05T19:36:32.926Z,46.91
2023-05-05T19:39:00.563Z,46.92
2023-05-05T19:41:27.990Z,46.93
2023-05-05T19:43:55.290Z,47.70
2023-05-05T19:46:24.266Z,47.40
2023-05-05T19:48:51.704Z,48.01
2023-05-05T19:51:19.006Z,47.99
2023-05-05T19:53:46.419Z,48.30
2023-05-05T19:56:13.699Z,48.17
2023-05-05T19:58:57.656Z,48.87
2023-05-05T20:01:26.948Z,48.61
2023-05-05T20:03:56.579Z,49.15
2023-05-05T20:06:24.455Z,49.87
2023-05-05T20:08:51.901Z,49.85
2023-05-05T20:11:19.211Z,50.87
2023-05-05T20:13:46.650Z,50.48
2023-05-05T20:16:14.019Z,50.54
2023-05-05T20:18:42.807Z,49.70
2023-05-05T20:21:10.202Z,49.74
2023-05-05T20:23:37.545Z,50.35
2023-05-05T20:26:04.916Z,50.91
2023-05-05T20:28:32.293Z,51.37
2023-05-05T20:30:59.694Z,52.21
2023-05-05T20:33:27.495Z,53.23
2023-05-05T20:35:56.236Z,53.30
2023-05-05T20:38:23.600Z,53.27
2023-05-05T20:40:50.947Z,53.90
2023-05-05T20:43:18.315Z,53.71
2023-05-05T20:45:45.671Z,54.24
2023-05-05T20:48:12.961Z,54.23
2023-05-05T20:50:41.074Z,54.06
2023-05-05T20:53:11.914Z,53.66
2023-05-05T20:55:39.528Z,54.12
2023-05-05T20:58:06.871Z,53.90
2023-05-05T21:00:34.299Z,54.68
2023-05-05T21:03:01.765Z,55.64
2023-05-05T21:05:29.953Z,55.88
2023-05-05T21:07:58.543Z,57.03
2023-05-05T21:10:29.257Z,57.42
2023-05-05T21:12:56.615Z,56.73
2023-05-05T21:15:24.183Z,57.17
2023-05-05T21:17:51.553Z,57.05
2023-05-05T21:20:19.189Z,57.02
2023-05-05T21:22:46.606Z,57.28
2023-05-05T21:25:16.986Z,57.55
2023-05-05T21:27:47.213Z,57.35
2023-05-05T21:30:15.163Z,57.59
2023-05-05T21:32:42.660Z,58.19
2023-05-05T21:35:10.033Z,58.28
2023-05-05T21:37:38.216Z,58.68
2023-05-05T21:40:06.627Z,59.21
2023-05-05T21:42:33.928Z,59.91
2023-05-05T21:45:02.652Z,59.83
2023-05-05T21:47:30.031Z,60.60
2023-05-05T21:49:57.911Z,60.22
2023-05-05T21:52:25.361Z,60.01
2023-05-05T21:54:52.680Z,59.68
2023-05-05T21:57:20.059Z,59.95
2023-05-05T21:59:47.448Z,59.86
2023-05-05T22:02:16.135Z,59.64
2023-05-05T22:04:43.460Z,59.80
2023-05-05T22:07:10.769Z,59.78
2023-05-05T22:09:38.173Z,58.79
2023-05-05T22:12:05.910Z,59.20
2023-05-05T22:14:33.242Z,59.52
2023-05-05T22:17:00.583Z,59.85
2023-05-05T22:19:29.272Z,60.55
2023-05-05T22:21:57.817Z,60.73
2023-05-05T22:24:25.142Z,60.71
2023-05-05T22:26:52.517Z,60.71
2023-05-05T22:29:19.844Z,60.67
2023-05-05T22:31:47.193Z,60.82
2023-05-05T22:34:14.976Z,60.70
2023-05-05T22:36:43.677Z,60.40
2023-05-05T22:39:10.979Z,60.08
2023-05-05T22:41:38.302Z,60.24
2023-05-05T22:44:05.741Z,59.61
2023-05-05T22:46:33.158Z,59.61
2023-05-05T22:49:00.573Z,59.50
2023-05-05T22:51:27.896Z,59.65
2023-05-05T22:53:56.664Z,60.05
2023-05-05T22:56:23.935Z,60.03
2023-05-05T22:58:51.204Z,60.24
2023-05-05T23:01:18.613Z,60.19
2023-05-05T23:03:45.937Z,60.62
2023-05-05T23:06:13.196Z,60.59
2023-05-05T23:08:40.535Z,60.60
2023-05-05T23:11:09.184Z,61.25
2023-05-05T23:13:36.494Z,61.28
2023-05-05T23:16:04.295Z,61.74
2023-05-05T23:18:31.655Z,61.76
2023-05-05T23:20:59.046Z,61.72
2023-05-05T23:23:26.357Z,61.73
2023-05-05T23:25:53.660Z,61.54
2023-05-05T23:28:22.366Z,61.24
2023-05-05T23:30:49.697Z,62.40
2023-05-05T23:33:17.017Z,62.28
2023-05-05T23:35:44.326Z,62.35
2023-05-05T23:38:11.650Z,62.13
2023-05-05T23:40:38.920Z,62.35
2023-05-05T23:43:06.210Z,62.33
2023-05-05T23:45:34.900Z,62.19
2023-05-05T23:48:02.266Z,62.45
2023-05-05T23:50:29.676Z,62.63
2023-05-05T23:52:56.961Z,62.99
2023-05-05T23:55:24.568Z,63.21
2023-05-05T23:57:51.887Z,63.41
